East Rupert, Vermont
Current Conditions -  °F | °C
As of 1:55 PM on Monday 20 Oct 2014 (Local Time) from KRUT Reporting Station
Few Clouds Few Clouds  
Wind Chill: 50°   Ceiling: Unl
Heat Index: 50°   Visibility: 10mi
Dew Point: 32°   Wind: 9mph
Humidity: 50%   Direction: 250°WSW
Pressure: 29.93"   Gusts: NA
Location:  43.358°N, 73.1349°W
Report Text: KRUT 201755Z 25008KT 230V290 10SM FEW120 10/00 A2993 RMK AO1 10100 21020 57027
Loading
Personal Weather Stations






























Interactive Weather Map
Tropical Storm Tracking
New forecast layout! Learn more

10-Day Weather Forecast

Advertisements
Track Severe Weather on mobile